createdAt,value
2022-12-27T00:01:40.020Z,99205.28
2022-12-27T00:04:06.931Z,99206.91
2022-12-27T00:06:33.810Z,99195.66
2022-12-27T00:09:01.957Z,99191.56
2022-12-27T00:11:30.218Z,99192.56
2022-12-27T00:14:00.168Z,99184.69
2022-12-27T00:16:27.405Z,99188.38
2022-12-27T00:18:54.514Z,99185.78
2022-12-27T00:21:22.499Z,99188.47
2022-12-27T00:23:53.645Z,99179.84
2022-12-27T00:26:29.485Z,99184.25
2022-12-27T00:28:56.978Z,99185.19
2022-12-27T00:31:25.130Z,99176.47
2022-12-27T00:33:54.388Z,99173.00
2022-12-27T00:36:24.163Z,99182.81
2022-12-27T00:38:53.108Z,99203.75
2022-12-27T00:41:20.635Z,99178.16
2022-12-27T00:43:47.534Z,99189.56
2022-12-27T00:46:14.731Z,99192.41
2022-12-27T00:48:41.894Z,99195.28
2022-12-27T00:51:17.828Z,99195.41
2022-12-27T00:53:45.573Z,99195.41
2022-12-27T00:56:16.675Z,99193.75
2022-12-27T00:58:43.727Z,99192.66
2022-12-27T01:01:18.175Z,99193.69
2022-12-27T01:03:45.528Z,99192.75
2022-12-27T01:06:18.087Z,99184.06
2022-12-27T01:08:46.414Z,99188.47
2022-12-27T01:11:14.260Z,99180.28
2022-12-27T01:13:42.003Z,99189.97
2022-12-27T01:16:31.756Z,99185.78
2022-12-27T01:18:59.930Z,99186.09
2022-12-27T01:21:28.997Z,99178.16
2022-12-27T01:23:56.215Z,99180.81
2022-12-27T01:26:24.345Z,99185.53
2022-12-27T01:28:53.042Z,99184.56
2022-12-27T01:31:24.785Z,99188.06
2022-12-27T01:33:57.477Z,99185.59
2022-12-27T01:36:25.911Z,99187.56
2022-12-27T01:38:52.906Z,99186.00
2022-12-27T01:41:56.423Z,99189.88
2022-12-27T01:44:49.313Z,99184.50
2022-12-27T01:47:54.919Z,99170.84
2022-12-27T01:50:24.585Z,99184.41
2022-12-27T01:53:24.578Z,99185.78
2022-12-27T01:56:21.371Z,99180.38
2022-12-27T01:58:50.944Z,99180.09
2022-12-27T02:01:22.313Z,99179.88
2022-12-27T02:04:07.180Z,99193.06
2022-12-27T02:06:36.269Z,99197.44
2022-12-27T02:09:36.581Z,99201.03
2022-12-27T02:12:07.050Z,99191.19
2022-12-27T02:14:41.747Z,99184.41
2022-12-27T02:17:12.476Z,99182.38
2022-12-27T02:19:42.388Z,99179.63
2022-12-27T02:22:30.293Z,99183.13
2022-12-27T02:25:15.808Z,99168.09
2022-12-27T02:28:00.890Z,99187.38
2022-12-27T02:30:32.116Z,99185.53
2022-12-27T02:32:59.639Z,99191.88
2022-12-27T02:35:36.073Z,99191.97
2022-12-27T02:38:19.026Z,99180.31
2022-12-27T02:41:05.917Z,99174.22
2022-12-27T02:43:52.440Z,99173.59
2022-12-27T02:46:47.080Z,99168.19
2022-12-27T02:49:46.301Z,99172.94
2022-12-27T02:53:02.370Z,99172.34
2022-12-27T02:56:15.304Z,99176.59
2022-12-27T02:58:51.930Z,99185.94
2022-12-27T03:01:59.070Z,99180.09
2022-12-27T03:04:59.060Z,99181.66
2022-12-27T03:07:37.717Z,99188.84
2022-12-27T03:10:54.225Z,99182.88
2022-12-27T03:13:55.953Z,99182.88
2022-12-27T03:16:56.000Z,99187.06
2022-12-27T03:19:53.901Z,99185.44
2022-12-27T03:25:28.581Z,99174.72
2022-12-27T03:28:31.387Z,99189.66
2022-12-27T03:31:38.774Z,99196.00
2022-12-27T03:34:27.918Z,99193.56
2022-12-27T03:37:17.224Z,99197.38
2022-12-27T03:39:54.348Z,99205.38
2022-12-27T03:42:45.505Z,99188.75
2022-12-27T03:45:14.538Z,99199.00
2022-12-27T03:47:52.191Z,99197.41
2022-12-27T03:50:22.847Z,99209.88
2022-12-27T03:53:09.434Z,99198.47
2022-12-27T03:55:38.074Z,99203.94
2022-12-27T03:58:05.164Z,99211.16
2022-12-27T04:00:32.841Z,99212.06
2022-12-27T04:02:59.820Z,99222.59
2022-12-27T04:05:26.854Z,99205.72
2022-12-27T04:08:12.399Z,99199.44
2022-12-27T04:10:57.872Z,99211.44
2022-12-27T04:13:43.358Z,99198.94
2022-12-27T04:16:28.776Z,99210.06
2022-12-27T04:19:14.296Z,99204.69
2022-12-27T04:21:59.548Z,99213.47
2022-12-27T04:24:44.993Z,99200.22
2022-12-27T04:27:30.342Z,99204.69
2022-12-27T04:30:15.697Z,99200.19
2022-12-27T04:33:01.016Z,99209.81
2022-12-27T04:35:27.921Z,99204.63
2022-12-27T04:37:54.762Z,99212.50
2022-12-27T04:40:40.267Z,99212.66
2022-12-27T04:43:27.499Z,99208.16
2022-12-27T04:46:13.196Z,99203.72
2022-12-27T04:48:58.570Z,99201.84
2022-12-27T04:51:44.115Z,99195.69
2022-12-27T04:54:41.176Z,99196.59
2022-12-27T04:57:08.225Z,99208.19
2022-12-27T04:59:53.784Z,99209.22
2022-12-27T05:02:21.482Z,99214.66
2022-12-27T05:04:48.896Z,99214.75
2022-12-27T05:07:35.143Z,99206.88
2022-12-27T05:10:23.414Z,99215.63
2022-12-27T05:13:10.200Z,99219.13
2022-12-27T05:15:37.343Z,99218.56
2022-12-27T05:18:04.297Z,99221.03
2022-12-27T05:20:35.100Z,99216.53
2022-12-27T05:23:21.132Z,99211.38
2022-12-27T05:25:48.846Z,99215.84
2022-12-27T05:28:15.826Z,99232.97
2022-12-27T05:30:44.571Z,99234.13
2022-12-27T05:33:12.144Z,99220.94
2022-12-27T05:35:39.508Z,99223.59
2022-12-27T05:38:06.945Z,99220.06
2022-12-27T05:40:35.071Z,99228.13
2022-12-27T05:43:03.197Z,99226.91
2022-12-27T05:45:30.674Z,99229.34
2022-12-27T05:48:00.095Z,99237.16
2022-12-27T05:50:27.955Z,99231.94
2022-12-27T05:53:09.756Z,99232.75
2022-12-27T05:55:36.665Z,99237.94
2022-12-27T05:58:03.813Z,99254.09
2022-12-27T06:00:30.703Z,99232.31
2022-12-27T06:02:58.155Z,99250.03
2022-12-27T06:05:25.114Z,99247.50
2022-12-27T06:07:51.982Z,99251.06
2022-12-27T06:10:18.843Z,99251.03
2022-12-27T06:12:46.418Z,99236.22
2022-12-27T06:15:13.281Z,99247.72
2022-12-27T06:17:40.471Z,99246.78
2022-12-27T06:20:07.947Z,99243.09
2022-12-27T06:22:35.071Z,99248.28
2022-12-27T06:25:01.963Z,99250.84
2022-12-27T06:27:29.128Z,99249.88
2022-12-27T06:29:57.240Z,99235.69
2022-12-27T06:32:24.354Z,99244.63
2022-12-27T06:34:51.428Z,99249.69
2022-12-27T06:37:18.671Z,99259.19
2022-12-27T06:39:45.884Z,99252.88
2022-12-27T06:42:12.544Z,99260.59
2022-12-27T06:44:39.737Z,99253.34
2022-12-27T06:47:06.619Z,99256.69
2022-12-27T06:49:33.633Z,99244.34
2022-12-27T06:52:00.502Z,99244.28
2022-12-27T06:54:27.736Z,99253.72
2022-12-27T06:56:56.347Z,99257.94
2022-12-27T06:59:24.484Z,99253.47
2022-12-27T07:01:51.518Z,99258.88
2022-12-27T07:04:18.562Z,99251.84
2022-12-27T07:06:45.416Z,99258.13
2022-12-27T07:09:12.354Z,99256.41
2022-12-27T07:11:39.211Z,99248.53
2022-12-27T07:14:09.817Z,99250.03
2022-12-27T07:16:37.631Z,99264.13
2022-12-27T07:19:05.071Z,99258.81
2022-12-27T07:21:32.294Z,99260.38
2022-12-27T07:23:59.375Z,99245.31
2022-12-27T07:26:30.677Z,99256.84
2022-12-27T07:29:02.135Z,99266.06
2022-12-27T07:31:31.912Z,99252.25
2022-12-27T07:34:01.019Z,99257.84
2022-12-27T07:36:37.933Z,99253.38
2022-12-27T07:39:05.879Z,99262.91
2022-12-27T07:41:32.920Z,99255.78
2022-12-27T07:44:01.899Z,99261.31
2022-12-27T07:46:28.777Z,99260.41
2022-12-27T07:48:58.030Z,99264.34
2022-12-27T07:51:25.805Z,99247.38
2022-12-27T07:53:52.993Z,99248.88
2022-12-27T07:56:26.511Z,99265.44
2022-12-27T07:58:56.124Z,99270.72
2022-12-27T08:01:24.571Z,99254.69
2022-12-27T08:03:51.740Z,99254.34
2022-12-27T08:06:23.509Z,99258.28
2022-12-27T08:08:52.951Z,99262.16
2022-12-27T08:11:20.470Z,99260.13
2022-12-27T08:13:47.781Z,99265.06
2022-12-27T08:16:23.748Z,99253.50
2022-12-27T08:18:50.922Z,99240.56
2022-12-27T08:21:17.857Z,99246.53
2022-12-27T08:23:45.335Z,99257.47
2022-12-27T08:26:12.224Z,99261.69
2022-12-27T08:28:39.572Z,99244.53
2022-12-27T08:31:11.727Z,99248.81
2022-12-27T08:33:39.293Z,99243.47
2022-12-27T08:36:53.371Z,99257.47
2022-12-27T08:38:55.481Z,99264.94
2022-12-27T08:41:22.994Z,99271.81
2022-12-27T08:43:50.371Z,99261.41
2022-12-27T08:46:19.006Z,99261.81
2022-12-27T08:48:49.996Z,99261.22
2022-12-27T08:51:27.268Z,99259.16
2022-12-27T08:54:00.538Z,99256.69
2022-12-27T08:56:27.508Z,99248.84
2022-12-27T08:58:54.475Z,99237.59
2022-12-27T09:01:21.550Z,99241.91
2022-12-27T09:03:48.533Z,99248.75
2022-12-27T09:06:20.893Z,99230.44
2022-12-27T09:08:49.076Z,99227.41
2022-12-27T09:11:19.158Z,99241.69
2022-12-27T09:13:46.637Z,99240.09
2022-12-27T09:16:16.872Z,99238.19
2022-12-27T09:18:46.945Z,99225.41
2022-12-27T09:21:14.803Z,99234.00
2022-12-27T09:23:41.900Z,99221.13
2022-12-27T09:26:14.884Z,99221.34
2022-12-27T09:28:42.901Z,99210.69
2022-12-27T09:31:12.600Z,99210.38
2022-12-27T09:33:39.587Z,99219.69
2022-12-27T09:36:17.209Z,99202.06
2022-12-27T09:38:45.812Z,99185.41
2022-12-27T09:42:45.981Z,99184.53
2022-12-27T09:44:47.449Z,99184.97
2022-12-27T09:47:52.731Z,99169.50
2022-12-27T09:50:35.899Z,99164.72
2022-12-27T09:53:28.103Z,99157.00
2022-12-27T09:55:58.109Z,99137.00
2022-12-27T09:58:43.620Z,99148.88
2022-12-27T10:01:32.285Z,99140.75
2022-12-27T10:04:00.801Z,99142.53
2022-12-27T10:06:39.636Z,99147.28
2022-12-27T10:09:26.311Z,99131.63
2022-12-27T10:11:58.905Z,99134.47
2022-12-27T10:15:07.135Z,99133.66
2022-12-27T10:17:55.169Z,99108.91
2022-12-27T10:20:25.062Z,99113.09
2022-12-27T10:23:02.797Z,99109.13
2022-12-27T10:25:36.232Z,99111.97
2022-12-27T10:28:25.632Z,99091.66
2022-12-27T10:30:53.417Z,99086.28
2022-12-27T10:33:29.457Z,99071.84
2022-12-27T10:35:58.367Z,99067.34
2022-12-27T10:38:31.454Z,99073.47
2022-12-27T10:41:22.509Z,99077.19
2022-12-27T10:43:54.942Z,99069.13
2022-12-27T10:46:32.811Z,99060.09
2022-12-27T10:49:21.001Z,99048.47
2022-12-27T10:51:51.573Z,99050.75
2022-12-27T10:54:25.628Z,99056.31
2022-12-27T10:56:54.097Z,99050.91
2022-12-27T10:59:27.571Z,99046.09
2022-12-27T11:02:00.991Z,99039.59
2022-12-27T11:04:29.932Z,99027.97
2022-12-27T11:07:00.027Z,99028.94
2022-12-27T11:09:29.268Z,99025.66
2022-12-27T11:12:15.694Z,99028.25
2022-12-27T11:14:58.109Z,99015.03
2022-12-27T11:17:43.648Z,98996.13
2022-12-27T11:20:21.959Z,99007.41
2022-12-27T11:23:03.848Z,99009.44
2022-12-27T11:25:32.349Z,99005.66
2022-12-27T11:28:04.670Z,98998.44
2022-12-27T11:30:31.898Z,98993.13
2022-12-27T11:33:04.234Z,98982.34
2022-12-27T11:35:34.234Z,98988.41
2022-12-27T11:38:01.191Z,98992.47
2022-12-27T11:40:35.038Z,98989.53
2022-12-27T11:43:12.598Z,98987.81
2022-12-27T11:45:48.192Z,98994.16
2022-12-27T11:48:29.249Z,98976.13
2022-12-27T11:51:03.096Z,98976.13
2022-12-27T11:54:01.545Z,98971.31
2022-12-27T11:56:44.428Z,98978.16
2022-12-27T11:59:28.737Z,98974.69
2022-12-27T12:02:06.993Z,98978.50
2022-12-27T12:04:46.252Z,98983.75
2022-12-27T12:07:28.043Z,98977.16
2022-12-27T12:10:16.305Z,98972.38
2022-12-27T12:13:10.888Z,98960.34
2022-12-27T12:15:56.407Z,98966.53
2022-12-27T12:18:42.282Z,98974.63
2022-12-27T12:21:24.246Z,98966.78
2022-12-27T12:24:09.552Z,98969.84
2022-12-27T12:26:56.124Z,98955.69
2022-12-27T12:29:39.328Z,98966.63
2022-12-27T12:32:21.279Z,98959.03
2022-12-27T12:34:54.547Z,98947.97
2022-12-27T12:37:58.436Z,98954.91
2022-12-27T12:40:52.043Z,98958.50
2022-12-27T12:43:45.604Z,98949.91
2022-12-27T12:46:38.262Z,98949.63
2022-12-27T12:49:26.282Z,98936.97
2022-12-27T12:52:18.927Z,98940.13
2022-12-27T12:55:15.439Z,98938.66
2022-12-27T12:57:54.080Z,98935.38
2022-12-27T13:00:47.921Z,98931.88
2022-12-27T13:03:29.613Z,98937.69
2022-12-27T13:06:33.606Z,98936.75
2022-12-27T13:09:20.526Z,98935.16
2022-12-27T13:12:08.475Z,98933.00
2022-12-27T13:15:17.353Z,98925.34
2022-12-27T13:17:55.851Z,98937.28
2022-12-27T13:26:53.814Z,98936.38
2022-12-27T13:29:45.665Z,98939.06
2022-12-27T13:32:37.454Z,98934.44
2022-12-27T13:35:30.005Z,98939.84
2022-12-27T13:38:11.967Z,98942.44
2022-12-27T13:41:05.849Z,98923.66
2022-12-27T13:43:56.728Z,98923.38
2022-12-27T13:46:53.875Z,98935.66
2022-12-27T13:55:50.574Z,98928.94
2022-12-27T13:58:36.134Z,98934.38
2022-12-27T14:01:26.326Z,98933.25
2022-12-27T14:04:33.330Z,98926.22
2022-12-27T14:07:24.926Z,98934.59
2022-12-27T14:10:10.878Z,98935.78
2022-12-27T14:13:07.593Z,98930.44
2022-12-27T14:15:48.254Z,98931.69
2022-12-27T14:18:28.889Z,98930.97
2022-12-27T14:21:02.363Z,98934.19
2022-12-27T14:23:59.933Z,98925.59
2022-12-27T14:26:52.117Z,98931.19
2022-12-27T14:29:28.338Z,98929.38
2022-12-27T14:32:33.596Z,98937.50
2022-12-27T14:35:25.463Z,98929.91
2022-12-27T14:38:29.599Z,98941.47
2022-12-27T14:41:21.528Z,98940.16
2022-12-27T14:44:27.378Z,98946.59
2022-12-27T14:47:28.849Z,98946.75
2022-12-27T14:50:25.052Z,98947.63
2022-12-27T14:53:13.031Z,98951.84
2022-12-27T14:55:44.631Z,98961.84
2022-12-27T14:58:35.998Z,98970.19
2022-12-27T15:01:06.316Z,98976.22
2022-12-27T15:03:49.783Z,98983.53
2022-12-27T15:06:47.406Z,98979.53
2022-12-27T15:09:36.554Z,98984.84
2022-12-27T15:12:42.447Z,98988.00
2022-12-27T15:15:31.237Z,98988.22
2022-12-27T15:18:17.181Z,98981.75
2022-12-27T15:20:56.851Z,98984.34
2022-12-27T15:23:53.204Z,98992.03
2022-12-27T15:26:29.680Z,98997.00
2022-12-27T15:29:24.258Z,99001.31
2022-12-27T15:32:01.882Z,98998.25
2022-12-27T15:34:48.171Z,99002.66
2022-12-27T15:37:48.484Z,99010.50
2022-12-27T15:40:33.590Z,99015.59
2022-12-27T15:43:22.690Z,99030.63
2022-12-27T15:46:01.979Z,99031.19
2022-12-27T15:48:53.303Z,99028.94
2022-12-27T15:51:29.682Z,99038.13
2022-12-27T15:54:06.127Z,99041.09
2022-12-27T15:56:35.704Z,99034.16
2022-12-27T15:59:37.009Z,99042.69
2022-12-27T16:02:31.896Z,99047.53
2022-12-27T16:05:13.310Z,99053.19
2022-12-27T16:07:50.640Z,99051.91
2022-12-27T16:10:42.560Z,99055.00
2022-12-27T16:13:09.644Z,99057.88
2022-12-27T16:15:49.938Z,99063.91
2022-12-27T16:18:17.015Z,99063.31
2022-12-27T16:20:58.152Z,99081.03
2022-12-27T16:23:29.066Z,99080.59
2022-12-27T16:26:09.467Z,99073.69
2022-12-27T16:28:38.065Z,99081.63
2022-12-27T16:31:12.911Z,99073.88
2022-12-27T16:33:42.084Z,99076.78
2022-12-27T16:36:12.410Z,99083.28
2022-12-27T16:38:44.627Z,99079.03
2022-12-27T16:41:17.568Z,99085.41
2022-12-27T16:43:53.499Z,99093.69
2022-12-27T16:46:32.714Z,99098.78
2022-12-27T16:49:23.599Z,99099.97
2022-12-27T16:52:00.873Z,99104.78
2022-12-27T16:54:46.399Z,99107.78
2022-12-27T16:57:25.490Z,99106.22
2022-12-27T17:00:01.452Z,99107.28
2022-12-27T17:02:33.104Z,99103.06
2022-12-27T17:05:01.103Z,99095.63
2022-12-27T17:07:49.972Z,99103.50
2022-12-27T17:10:26.039Z,99104.09
2022-12-27T17:13:11.149Z,99111.38
2022-12-27T17:15:50.643Z,99107.72
2022-12-27T17:18:37.748Z,99110.16
2022-12-27T17:21:32.843Z,99108.09
2022-12-27T17:24:13.379Z,99115.00
2022-12-27T17:26:58.336Z,99117.06
2022-12-27T17:29:40.263Z,99120.00
2022-12-27T17:32:54.841Z,99124.84
2022-12-27T17:35:36.172Z,99116.78
2022-12-27T17:38:33.936Z,99132.69
2022-12-27T17:42:09.405Z,99145.41
2022-12-27T17:44:55.585Z,99143.72
2022-12-27T17:47:43.734Z,99133.38
2022-12-27T17:50:18.016Z,99137.34
2022-12-27T17:53:33.415Z,99137.41
2022-12-27T17:56:31.035Z,99131.44
2022-12-27T17:59:22.562Z,99136.16
2022-12-27T18:01:55.023Z,99130.13
2022-12-27T18:04:26.505Z,99132.19
2022-12-27T18:06:59.559Z,99144.56
2022-12-27T18:09:53.567Z,99144.09
2022-12-27T18:12:42.410Z,99144.09
2022-12-27T18:15:22.083Z,99140.19
2022-12-27T18:17:54.896Z,99146.63
2022-12-27T18:20:28.330Z,99147.19
2022-12-27T18:23:01.912Z,99157.66
2022-12-27T18:25:38.168Z,99152.44
2022-12-27T18:28:28.674Z,99162.53
2022-12-27T18:31:08.756Z,99157.06
2022-12-27T18:33:45.073Z,99145.56
2022-12-27T18:36:22.078Z,99146.72
2022-12-27T18:38:56.009Z,99136.38
2022-12-27T18:41:24.282Z,99131.88
2022-12-27T18:43:59.995Z,99154.09
2022-12-27T18:46:32.489Z,99143.84
2022-12-27T18:49:01.157Z,99148.28
2022-12-27T18:51:37.241Z,99153.09
2022-12-27T18:54:33.085Z,99163.13
2022-12-27T18:57:03.866Z,99164.22
2022-12-27T18:59:36.977Z,99160.06
2022-12-27T19:02:34.537Z,99167.06
2022-12-27T19:05:29.898Z,99167.31
2022-12-27T19:08:02.815Z,99176.81
2022-12-27T19:10:31.045Z,99171.47
2022-12-27T19:12:58.396Z,99177.53
2022-12-27T19:15:29.132Z,99181.78
2022-12-27T19:18:02.645Z,99180.91
2022-12-27T19:20:36.164Z,99176.50
2022-12-27T19:23:07.099Z,99171.25
2022-12-27T19:25:36.507Z,99185.47
2022-12-27T19:28:10.001Z,99188.94
2022-12-27T19:30:42.557Z,99187.19
2022-12-27T19:33:16.316Z,99196.25
2022-12-27T19:35:43.728Z,99183.75
2022-12-27T19:38:26.080Z,99189.09
2022-12-27T19:41:01.443Z,99183.91
2022-12-27T19:43:33.824Z,99190.34
2022-12-27T19:46:01.090Z,99190.59
2022-12-27T19:48:28.091Z,99195.41
2022-12-27T19:50:55.445Z,99188.56
2022-12-27T19:53:31.803Z,99201.22
2022-12-27T19:55:58.945Z,99201.59
2022-12-27T19:58:31.186Z,99201.69
2022-12-27T20:00:59.477Z,99201.84
2022-12-27T20:03:26.477Z,99196.94
2022-12-27T20:06:13.329Z,99210.94
2022-12-27T20:08:49.404Z,99210.03
2022-12-27T20:11:20.756Z,99214.53
2022-12-27T20:13:48.622Z,99216.44
2022-12-27T20:16:18.781Z,99227.06
2022-12-27T20:18:47.400Z,99225.97
2022-12-27T20:21:17.376Z,99231.25
2022-12-27T20:23:45.897Z,99235.66
2022-12-27T20:26:14.393Z,99229.38
2022-12-27T20:28:41.633Z,99227.47
2022-12-27T20:31:15.375Z,99233.59
2022-12-27T20:33:45.112Z,99238.03
2022-12-27T20:36:12.472Z,99240.69
2022-12-27T20:38:41.853Z,99240.69
2022-12-27T20:41:11.705Z,99234.66
2022-12-27T20:43:39.419Z,99229.28
2022-12-27T20:46:09.184Z,99240.06
2022-12-27T20:48:41.136Z,99238.53
2022-12-27T20:51:11.689Z,99237.03
2022-12-27T20:53:38.588Z,99246.75
2022-12-27T20:56:06.908Z,99251.47
2022-12-27T20:58:34.109Z,99257.19
2022-12-27T21:01:13.453Z,99256.63
2022-12-27T21:03:40.889Z,99262.13
2022-12-27T21:06:14.117Z,99259.66
2022-12-27T21:08:47.954Z,99270.56
2022-12-27T21:11:26.858Z,99267.19
2022-12-27T21:13:55.074Z,99270.22
2022-12-27T21:16:24.671Z,99256.50
2022-12-27T21:18:52.015Z,99266.22
2022-12-27T21:21:28.343Z,99260.09
2022-12-27T21:23:57.974Z,99267.53
2022-12-27T21:26:28.164Z,99261.41
2022-12-27T21:28:55.337Z,99262.41
2022-12-27T21:31:22.617Z,99261.53
2022-12-27T21:33:49.992Z,99262.41
2022-12-27T21:36:20.462Z,99262.41
2022-12-27T21:38:48.491Z,99266.00
2022-12-27T21:41:19.042Z,99274.09
2022-12-27T21:43:48.963Z,99273.22
2022-12-27T21:46:19.041Z,99266.38
2022-12-27T21:48:47.582Z,99276.03
2022-12-27T21:51:17.393Z,99285.94
2022-12-27T21:53:45.238Z,99285.06
2022-12-27T21:56:13.520Z,99290.47
2022-12-27T21:58:41.863Z,99293.81
2022-12-27T22:01:12.973Z,99290.59
2022-12-27T22:03:42.677Z,99286.34
2022-12-27T22:06:18.040Z,99287.09
2022-12-27T22:08:47.092Z,99291.69
2022-12-27T22:11:20.815Z,99287.03
2022-12-27T22:13:48.850Z,99287.09
2022-12-27T22:16:19.116Z,99291.72
2022-12-27T22:18:46.757Z,99286.38
2022-12-27T22:21:16.601Z,99279.28
2022-12-27T22:23:46.075Z,99288.44
2022-12-27T22:26:16.546Z,99275.78
2022-12-27T22:28:44.559Z,99282.47
2022-12-27T22:31:15.106Z,99279.53
2022-12-27T22:33:43.476Z,99275.97
2022-12-27T22:36:16.804Z,99282.41
2022-12-27T22:38:47.676Z,99292.50
2022-12-27T22:41:31.333Z,99289.25
2022-12-27T22:44:06.878Z,99291.97
2022-12-27T22:49:21.518Z,99295.97
2022-12-27T22:51:48.446Z,99295.91
2022-12-27T22:54:15.371Z,99299.31
2022-12-27T22:56:43.022Z,99288.69
2022-12-27T22:59:15.005Z,99306.47
2022-12-27T23:01:43.636Z,99298.78
2022-12-27T23:04:13.026Z,99295.19
2022-12-27T23:06:41.215Z,99297.97
2022-12-27T23:09:08.599Z,99291.84
2022-12-27T23:11:38.344Z,99293.72
2022-12-27T23:14:09.759Z,99297.44
2022-12-27T23:16:39.673Z,99308.91
2022-12-27T23:19:08.377Z,99295.59
2022-12-27T23:21:36.279Z,99310.91
2022-12-27T23:24:04.091Z,99308.75
2022-12-27T23:26:31.345Z,99307.78
2022-12-27T23:28:58.386Z,99304.09
2022-12-27T23:31:27.032Z,99308.88
2022-12-27T23:33:54.842Z,99312.69
2022-12-27T23:36:22.407Z,99310.88
2022-12-27T23:38:50.380Z,99305.41
2022-12-27T23:41:20.426Z,99311.63
2022-12-27T23:43:52.611Z,99310.34
2022-12-27T23:46:46.673Z,99314.66
2022-12-27T23:49:13.623Z,99310.91
2022-12-27T23:51:40.451Z,99310.00
2022-12-27T23:54:07.390Z,99317.78
2022-12-27T23:56:34.277Z,99319.47
2022-12-27T23:59:02.396Z,99313.84
